createdAt,value
2022-09-30T00:01:28.009Z,100.00
2022-09-30T00:06:37.100Z,100.00
2022-09-30T00:11:55.152Z,100.00
2022-09-30T00:17:04.452Z,100.00
2022-09-30T00:22:26.231Z,100.00
2022-09-30T00:27:40.515Z,100.00
2022-09-30T00:32:51.716Z,100.00
2022-09-30T00:38:08.417Z,100.00
2022-09-30T00:43:21.924Z,100.00
2022-09-30T00:48:37.906Z,100.00
2022-09-30T00:54:02.666Z,100.00
2022-09-30T00:59:25.545Z,100.00
2022-09-30T01:04:38.050Z,100.00
2022-09-30T01:09:50.967Z,100.00
2022-09-30T01:15:05.226Z,100.00
2022-09-30T01:20:55.069Z,100.00
2022-09-30T01:26:56.224Z,100.00
2022-09-30T01:32:18.147Z,100.00
2022-09-30T01:37:43.267Z,100.00
2022-09-30T01:43:03.996Z,100.00
2022-09-30T01:48:27.819Z,100.00
2022-09-30T01:53:46.970Z,100.00
2022-09-30T01:58:59.761Z,100.00
2022-09-30T02:04:22.285Z,100.00
2022-09-30T02:09:34.931Z,100.00
2022-09-30T02:14:50.139Z,100.00
2022-09-30T02:20:33.888Z,100.00
2022-09-30T02:25:47.560Z,100.00
2022-09-30T02:30:58.239Z,100.00
2022-09-30T02:36:26.129Z,100.00
2022-09-30T02:41:39.779Z,100.00
2022-09-30T02:47:00.135Z,100.00
2022-09-30T02:52:27.099Z,100.00
2022-09-30T02:57:47.248Z,100.00
2022-09-30T03:02:59.580Z,100.00
2022-09-30T03:08:26.825Z,100.00
2022-09-30T03:14:12.981Z,100.00
2022-09-30T03:19:38.095Z,100.00
2022-09-30T03:25:12.911Z,100.00
2022-09-30T03:30:36.785Z,100.00
2022-09-30T03:35:55.849Z,100.00
2022-09-30T03:41:18.941Z,100.00
2022-09-30T03:46:29.682Z,100.00
2022-09-30T03:51:50.758Z,100.00
2022-09-30T03:57:32.818Z,100.00
2022-09-30T04:02:42.168Z,100.00
2022-09-30T04:07:51.531Z,100.00
2022-09-30T04:13:12.341Z,100.00
2022-09-30T04:18:33.060Z,100.00
2022-09-30T04:23:43.889Z,100.00
2022-09-30T04:29:06.728Z,100.00
2022-09-30T04:34:20.337Z,100.00
2022-09-30T04:39:27.523Z,100.00
2022-09-30T04:44:49.391Z,100.00
2022-09-30T04:49:59.763Z,100.00
2022-09-30T04:55:16.098Z,100.00
2022-09-30T05:00:24.937Z,100.00
2022-09-30T05:05:35.016Z,100.00
2022-09-30T05:11:07.863Z,100.00
2022-09-30T05:16:24.225Z,100.00
2022-09-30T05:21:37.574Z,100.00
2022-09-30T05:27:12.751Z,100.00
2022-09-30T05:32:32.810Z,100.00
2022-09-30T05:37:43.732Z,100.00
2022-09-30T05:42:57.206Z,100.00
2022-09-30T05:48:07.477Z,100.00
2022-09-30T05:53:13.224Z,100.00
2022-09-30T05:58:43.212Z,100.00
2022-09-30T06:03:52.208Z,100.00
2022-09-30T06:09:02.742Z,100.00
2022-09-30T06:14:11.266Z,100.00
2022-09-30T06:19:22.145Z,100.00
2022-09-30T06:24:39.420Z,100.00
2022-09-30T06:29:49.438Z,100.00
2022-09-30T06:35:01.377Z,100.00
2022-09-30T06:40:10.347Z,98.62
2022-09-30T06:45:30.350Z,92.14
2022-09-30T06:51:01.502Z,94.35
2022-09-30T06:56:09.106Z,91.38
2022-09-30T07:01:32.432Z,91.64
2022-09-30T07:06:48.709Z,88.13
2022-09-30T07:11:59.678Z,88.18
2022-09-30T07:17:25.275Z,87.87
2022-09-30T07:22:43.308Z,86.40
2022-09-30T07:28:29.102Z,86.68
2022-09-30T07:44:28.394Z,84.98
2022-09-30T07:49:59.256Z,83.65
2022-09-30T07:55:24.312Z,83.21
2022-09-30T08:00:44.286Z,83.39
2022-09-30T08:06:12.718Z,83.48
2022-09-30T08:11:26.944Z,82.77
2022-09-30T08:16:32.192Z,82.30
2022-09-30T08:21:47.565Z,81.17
2022-09-30T08:27:08.686Z,79.76
2022-09-30T08:32:17.727Z,79.56
2022-09-30T08:37:26.449Z,78.40
2022-09-30T08:43:04.247Z,77.50
2022-09-30T08:48:30.467Z,77.29
2022-09-30T08:53:39.492Z,76.67
2022-09-30T08:59:00.119Z,77.67
2022-09-30T09:04:25.817Z,76.25
2022-09-30T09:10:18.752Z,74.79
2022-09-30T09:15:53.192Z,75.71
2022-09-30T09:21:06.326Z,74.98
2022-09-30T09:26:30.808Z,74.29
2022-09-30T09:31:54.260Z,73.28
2022-09-30T09:37:19.310Z,71.57
2022-09-30T09:43:07.669Z,72.03
2022-09-30T09:48:18.385Z,70.36
2022-09-30T09:54:12.655Z,70.65
2022-09-30T09:59:26.212Z,70.64
2022-09-30T10:04:44.419Z,69.50
2022-09-30T10:09:49.556Z,66.80
2022-09-30T10:15:20.688Z,65.49
2022-09-30T10:20:39.066Z,64.52
2022-09-30T10:25:57.931Z,65.50
2022-09-30T10:31:10.170Z,66.07
2022-09-30T10:36:19.863Z,65.99
2022-09-30T10:41:41.396Z,65.12
2022-09-30T10:46:55.653Z,64.55
2022-09-30T10:52:05.644Z,64.03
2022-09-30T10:57:17.618Z,61.98
2022-09-30T11:02:53.265Z,62.18
2022-09-30T11:08:21.509Z,63.30
2022-09-30T11:13:52.706Z,60.91
2022-09-30T11:19:11.430Z,61.00
2022-09-30T11:24:30.415Z,61.39
2022-09-30T11:29:50.986Z,61.61
2022-09-30T11:35:14.029Z,61.01
2022-09-30T11:40:50.879Z,59.11
2022-09-30T11:46:44.629Z,58.41
2022-09-30T11:52:11.496Z,57.13
2022-09-30T11:57:25.007Z,57.63
2022-09-30T12:02:49.360Z,57.65
2022-09-30T12:08:03.619Z,57.74
2022-09-30T12:13:16.395Z,56.01
2022-09-30T12:18:52.555Z,56.55
2022-09-30T12:24:22.828Z,57.12
2022-09-30T12:29:51.215Z,55.02
2022-09-30T12:35:28.756Z,55.18
2022-09-30T12:40:59.771Z,55.66
2022-09-30T12:46:19.698Z,55.21
2022-09-30T12:51:32.251Z,56.01
2022-09-30T12:56:40.265Z,56.56
2022-09-30T13:01:49.764Z,57.02
2022-09-30T13:07:22.374Z,56.91
2022-09-30T13:12:30.735Z,56.27
2022-09-30T13:17:36.893Z,56.65
2022-09-30T13:23:20.163Z,56.40
2022-09-30T13:28:46.107Z,55.50
2022-09-30T13:34:10.421Z,55.53
2022-09-30T13:39:29.815Z,56.21
2022-09-30T13:44:42.375Z,57.00
2022-09-30T13:50:03.666Z,56.89
2022-09-30T13:55:27.120Z,56.76
2022-09-30T14:00:48.630Z,56.85
2022-09-30T14:06:20.902Z,57.20
2022-09-30T14:11:57.193Z,57.88
2022-09-30T14:17:43.173Z,57.78
2022-09-30T14:22:48.579Z,57.74
2022-09-30T14:28:19.552Z,57.68
2022-09-30T14:33:48.721Z,58.02
2022-09-30T14:39:00.731Z,58.11
2022-09-30T14:44:25.621Z,57.58
2022-09-30T14:49:36.617Z,58.14
2022-09-30T14:55:14.663Z,58.80
2022-09-30T15:00:37.031Z,57.72
2022-09-30T15:05:46.062Z,57.87
2022-09-30T15:11:08.774Z,59.64
2022-09-30T15:16:36.508Z,58.47
2022-09-30T15:21:51.123Z,59.29
2022-09-30T15:26:58.379Z,58.98
2022-09-30T15:32:25.806Z,58.14
2022-09-30T15:37:49.570Z,58.39
2022-09-30T15:43:01.593Z,57.37
2022-09-30T15:48:39.631Z,58.15
2022-09-30T15:53:53.493Z,58.20
2022-09-30T15:58:59.445Z,58.87
2022-09-30T16:04:20.270Z,59.37
2022-09-30T16:09:41.218Z,60.59
2022-09-30T16:15:05.061Z,61.61
2022-09-30T16:20:30.927Z,61.77
2022-09-30T16:25:38.031Z,63.26
2022-09-30T16:30:50.787Z,64.05
2022-09-30T16:36:00.792Z,64.99
2022-09-30T16:41:15.420Z,66.38
2022-09-30T16:46:22.264Z,66.92
2022-09-30T16:51:28.342Z,67.40
2022-09-30T16:56:39.235Z,67.87
2022-09-30T17:01:48.965Z,68.30
2022-09-30T17:07:00.961Z,69.51
2022-09-30T17:12:07.773Z,70.40
2022-09-30T17:17:26.670Z,71.26
2022-09-30T17:22:35.758Z,72.10
2022-09-30T17:27:49.325Z,73.08
2022-09-30T17:33:11.900Z,73.27
2022-09-30T17:38:20.950Z,73.98
2022-09-30T17:43:33.270Z,74.90
2022-09-30T17:48:39.758Z,75.12
2022-09-30T17:53:45.130Z,76.00
2022-09-30T17:58:57.763Z,77.18
2022-09-30T18:04:15.324Z,77.86
2022-09-30T18:09:29.404Z,77.60
2022-09-30T18:14:48.516Z,78.12
2022-09-30T18:19:57.791Z,78.63
2022-09-30T18:25:24.995Z,79.42
2022-09-30T18:30:31.587Z,79.88
2022-09-30T18:35:43.274Z,80.20
2022-09-30T18:41:05.841Z,81.06
2022-09-30T18:46:30.061Z,82.38
2022-09-30T18:51:35.750Z,82.68
2022-09-30T18:56:47.094Z,83.51
2022-09-30T19:02:03.205Z,83.63
2022-09-30T19:07:08.506Z,84.22
2022-09-30T19:12:15.602Z,84.75
2022-09-30T19:17:23.828Z,85.46
2022-09-30T19:22:32.146Z,85.22
2022-09-30T19:27:42.489Z,85.61
2022-09-30T19:32:58.544Z,86.92
2022-09-30T19:38:11.580Z,86.78
2022-09-30T19:43:23.848Z,87.64
2022-09-30T19:48:36.756Z,88.98
2022-09-30T19:53:46.411Z,89.13
2022-09-30T19:59:17.404Z,89.03
2022-09-30T20:04:32.412Z,89.41
2022-09-30T20:09:46.357Z,89.77
2022-09-30T20:15:30.668Z,90.20
2022-09-30T20:20:51.958Z,90.98
2022-09-30T20:26:05.930Z,92.06
2022-09-30T20:31:20.924Z,91.14
2022-09-30T20:36:37.939Z,93.08
2022-09-30T20:42:01.838Z,92.27
2022-09-30T20:47:35.101Z,93.93
2022-09-30T20:52:47.736Z,93.67
2022-09-30T21:03:33.361Z,94.82
2022-09-30T21:08:51.375Z,95.61
2022-09-30T21:13:56.791Z,95.92
2022-09-30T21:19:08.249Z,96.77
2022-09-30T21:24:26.612Z,99.26
2022-09-30T21:29:47.161Z,98.79
2022-09-30T21:40:29.292Z,100.00
2022-09-30T21:46:09.945Z,100.00
2022-09-30T21:51:16.675Z,100.00
2022-09-30T21:56:25.241Z,100.00
2022-09-30T22:01:36.887Z,100.00
2022-09-30T22:06:52.976Z,100.00
2022-09-30T22:12:13.233Z,100.00
2022-09-30T22:17:21.190Z,100.00
2022-09-30T22:22:29.639Z,100.00
2022-09-30T22:27:58.779Z,100.00
2022-09-30T22:33:23.439Z,100.00
2022-09-30T22:38:33.691Z,100.00
2022-09-30T22:43:46.824Z,100.00
2022-09-30T22:49:03.892Z,100.00
2022-09-30T22:54:13.315Z,100.00
2022-09-30T22:59:24.492Z,100.00
2022-09-30T23:04:34.214Z,100.00
2022-09-30T23:09:47.299Z,100.00
2022-09-30T23:14:59.390Z,100.00
2022-09-30T23:20:21.599Z,100.00
2022-09-30T23:25:32.399Z,100.00
2022-09-30T23:30:39.561Z,100.00
2022-09-30T23:35:48.692Z,100.00
2022-09-30T23:40:55.970Z,99.90
2022-09-30T23:46:14.848Z,100.00
2022-09-30T23:51:20.162Z,100.00
2022-09-30T23:56:26.196Z,100.00
